Time,TemperatureF,DewpointF,PressureIn,WindDirection,WindDirectionDegrees,WindSpeedMPH,WindSpeedGustMPH,Humidity,HourlyPrecipIn,Conditions,Clouds,dailyrainin,SoftwareType,DateUTC
2013-03-11 00:00:00,49.3,35.6,30.19,WNW,292,0.0,4.0,59,0.00,,OVC,0.00,VWS V14.01,2013-03-11 04:00:00,
2013-03-11 01:00:00,49.5,36.6,30.18,WSW,248,0.0,4.0,61,0.00,,OVC,0.00,VWS V14.01,2013-03-11 05:00:00,
2013-03-11 02:00:00,49.2,39.5,30.17,NW,315,0.0,5.0,69,0.00,,OVC,0.00,VWS V14.01,2013-03-11 06:00:00,
2013-03-11 03:00:00,48.4,40.8,30.15,West,270,0.0,5.0,75,0.00,,OVC,0.00,VWS V14.01,2013-03-11 07:00:00,
2013-03-11 04:00:00,47.3,41.5,30.13,SW,225,0.0,4.0,80,0.00,,OVC,0.00,VWS V14.01,2013-03-11 08:00:00,
2013-03-11 05:00:00,46.7,43.3,30.10,SW,225,0.0,3.0,88,0.00,,OVC,0.00,VWS V14.01,2013-03-11 09:00:00,
2013-03-11 06:00:00,46.1,43.3,30.09,SW,225,0.0,3.0,90,0.00,,OVC,0.00,VWS V14.01,2013-03-11 10:00:00,
2013-03-11 07:00:00,45.8,43.0,30.10,SW,225,0.0,2.0,90,0.00,,OVC,0.00,VWS V14.01,2013-03-11 11:00:00,
2013-03-11 08:00:00,45.5,43.0,30.09,SW,225,0.0,3.0,91,0.00,,OVC,0.00,VWS V14.01,2013-03-11 12:00:00,
2013-03-11 09:00:00,45.4,42.9,30.10,West,270,0.0,2.0,91,0.00,,OVC,0.00,VWS V14.01,2013-03-11 13:00:00,
2013-03-11 10:00:00,45.8,43.3,30.08,SE,135,0.0,4.0,91,0.00,,OVC,0.00,VWS V14.01,2013-03-11 14:00:00,
2013-03-11 11:00:00,46.2,43.4,30.06,West,270,0.0,7.0,90,0.00,,OVC,0.00,VWS V14.01,2013-03-11 15:00:00,
2013-03-11 12:00:00,46.7,44.5,30.04,West,270,1.0,9.0,92,0.00,,OVC,0.00,VWS V14.01,2013-03-11 16:00:00,
2013-03-11 13:00:00,47.6,46.0,30.02,SW,225,0.0,2.0,94,0.00,,OVC,0.00,VWS V14.01,2013-03-11 17:00:00,
2013-03-11 14:00:00,49.8,47.0,29.98,WNW,292,0.0,4.0,90,0.00,,OVC,0.00,VWS V14.01,2013-03-11 18:00:00,
2013-03-11 15:00:00,52.0,48.3,29.93,SW,225,0.0,8.0,87,0.00,,OVC,0.00,VWS V14.01,2013-03-11 19:00:00,
2013-03-11 16:00:00,54.2,49.2,29.91,SW,225,0.0,9.0,83,0.00,,OVC,0.00,VWS V14.01,2013-03-11 20:00:00,
2013-03-11 17:00:00,55.0,49.3,29.89,West,270,1.0,5.0,81,0.00,,OVC,0.00,VWS V14.01,2013-03-11 21:00:00,
2013-03-11 18:00:00,54.6,50.2,29.88,SSW,202,1.0,6.0,85,0.01,,OVC,0.01,VWS V14.01,2013-03-11 22:00:00,
2013-03-11 19:00:00,52.2,50.5,29.88,NW,315,0.0,5.0,94,0.05,,OVC,0.05,VWS V14.01,2013-03-11 23:00:00,
2013-03-11 20:00:00,51.6,50.2,29.89,West,270,0.0,2.0,95,0.22,,OVC,0.23,VWS V14.01,2013-03-12 00:00:00,
2013-03-11 21:00:00,51.4,50.6,29.90,WSW,248,0.0,3.0,97,0.39,,OVC,0.44,VWS V14.01,2013-03-12 01:00:00,
2013-03-11 22:00:00,51.4,50.6,29.89,SW,225,0.0,3.0,97,0.43,,OVC,0.66,VWS V14.01,2013-03-12 02:00:00,
2013-03-11 23:00:00,51.8,51.0,29.87,SW,225,0.0,2.0,97,0.39,,OVC,0.83,VWS V14.01,2013-03-12 03:00:00,